createdAt,value
2017-09-27T00:00:47.440Z,95.40
2017-09-27T00:03:15.057Z,83.20
2017-09-27T00:05:42.699Z,94.53
2017-09-27T00:08:10.322Z,106.30
2017-09-27T00:10:37.909Z,104.47
2017-09-27T00:13:05.557Z,91.87
2017-09-27T00:15:33.158Z,97.33
2017-09-27T00:18:00.762Z,102.57
2017-09-27T00:20:29.830Z,90.30
2017-09-27T00:22:57.640Z,92.50
2017-09-27T00:25:25.244Z,100.37
2017-09-27T00:27:52.963Z,101.90
2017-09-27T00:30:20.616Z,102.40
2017-09-27T00:32:48.366Z,111.23
2017-09-27T00:35:16.030Z,92.77
2017-09-27T00:37:43.628Z,105.37
2017-09-27T00:40:11.252Z,107.23
2017-09-27T00:42:38.921Z,118.73
2017-09-27T00:45:06.526Z,109.33
2017-09-27T00:47:34.191Z,103.93
2017-09-27T00:50:01.797Z,108.97
2017-09-27T00:52:29.387Z,105.00
2017-09-27T00:54:57.003Z,112.63
2017-09-27T00:57:24.608Z,110.90
2017-09-27T00:59:52.253Z,114.17
2017-09-27T01:02:19.880Z,116.97
2017-09-27T01:04:47.512Z,107.87
2017-09-27T01:07:15.464Z,110.27
2017-09-27T01:09:43.072Z,122.77
2017-09-27T01:12:10.726Z,108.80
2017-09-27T01:14:38.316Z,109.97
2017-09-27T01:17:05.929Z,111.40
2017-09-27T01:19:33.554Z,119.13
2017-09-27T01:22:01.163Z,121.90
2017-09-27T01:24:28.796Z,113.93
2017-09-27T01:26:56.668Z,123.80
2017-09-27T01:29:24.287Z,109.13
2017-09-27T01:31:51.950Z,118.27
2017-09-27T01:34:19.552Z,123.17
2017-09-27T01:36:47.531Z,113.73
2017-09-27T01:39:15.396Z,120.40
2017-09-27T01:41:43.002Z,121.00
2017-09-27T01:44:10.623Z,130.77
2017-09-27T01:46:38.235Z,113.20
2017-09-27T01:49:05.957Z,111.07
2017-09-27T01:51:33.600Z,131.27
2017-09-27T01:54:01.215Z,123.30
2017-09-27T01:56:28.863Z,125.00
2017-09-27T01:58:56.470Z,127.10
2017-09-27T02:01:24.130Z,131.03
2017-09-27T02:03:51.748Z,128.77
2017-09-27T02:06:19.333Z,125.23
2017-09-27T02:08:46.952Z,133.33
2017-09-27T02:11:14.552Z,136.90
2017-09-27T02:13:42.204Z,138.73
2017-09-27T02:16:09.811Z,127.63
2017-09-27T02:18:37.413Z,128.37
2017-09-27T02:21:05.050Z,128.70
2017-09-27T02:23:32.754Z,130.13
2017-09-27T02:26:00.395Z,120.83
2017-09-27T02:28:27.995Z,125.33
2017-09-27T02:30:55.608Z,131.77
2017-09-27T02:33:23.256Z,122.27
2017-09-27T02:35:50.855Z,146.60
2017-09-27T02:38:18.503Z,127.97
2017-09-27T02:40:46.104Z,135.83
2017-09-27T02:43:13.695Z,133.90
2017-09-27T02:45:41.320Z,122.37
2017-09-27T02:48:08.948Z,130.60
2017-09-27T02:50:36.603Z,137.90
2017-09-27T02:53:04.198Z,121.00
2017-09-27T02:55:31.789Z,124.20
2017-09-27T02:57:59.415Z,119.10
2017-09-27T03:00:27.012Z,118.73
2017-09-27T03:02:54.644Z,121.03
2017-09-27T03:05:22.602Z,126.07
2017-09-27T03:07:50.221Z,131.73
2017-09-27T03:10:17.833Z,134.17
2017-09-27T03:12:45.436Z,137.10
2017-09-27T03:15:13.052Z,124.77
2017-09-27T03:17:40.662Z,122.93
2017-09-27T03:20:08.249Z,131.73
2017-09-27T03:22:35.906Z,135.37
2017-09-27T03:25:03.500Z,116.53
2017-09-27T03:27:31.161Z,143.70
2017-09-27T03:29:58.765Z,128.17
2017-09-27T03:32:26.352Z,121.13
2017-09-27T03:34:53.978Z,123.80
2017-09-27T03:37:21.571Z,136.20
2017-09-27T03:39:49.212Z,116.07
2017-09-27T03:42:16.817Z,138.03
2017-09-27T03:44:44.424Z,128.03
2017-09-27T03:47:12.048Z,108.30
2017-09-27T03:49:39.688Z,123.90
2017-09-27T03:52:07.360Z,121.17
2017-09-27T03:54:34.982Z,123.23
2017-09-27T03:57:02.555Z,132.13
2017-09-27T03:59:30.180Z,121.10
2017-09-27T04:01:57.812Z,133.23
2017-09-27T04:04:25.443Z,117.87
2017-09-27T04:06:53.052Z,134.23
2017-09-27T04:09:20.643Z,128.00
2017-09-27T04:11:48.254Z,114.20
2017-09-27T04:14:15.854Z,123.87
2017-09-27T04:16:43.484Z,130.73
2017-09-27T04:19:11.107Z,131.13
2017-09-27T04:21:39.018Z,132.70
2017-09-27T04:24:06.682Z,113.63
2017-09-27T04:26:34.548Z,124.07
2017-09-27T04:29:02.187Z,129.83
2017-09-27T04:31:29.783Z,135.43
2017-09-27T04:33:57.401Z,126.03
2017-09-27T04:36:25.050Z,122.80
2017-09-27T04:38:52.635Z,121.67
2017-09-27T04:41:20.289Z,134.33
2017-09-27T04:43:47.885Z,133.17
2017-09-27T04:46:15.487Z,118.90
2017-09-27T04:48:43.120Z,116.57
2017-09-27T04:51:10.716Z,133.30
2017-09-27T04:53:38.353Z,118.90
2017-09-27T04:56:05.941Z,123.47
2017-09-27T04:58:33.550Z,131.90
2017-09-27T05:01:01.181Z,130.57
2017-09-27T05:03:28.775Z,126.43
2017-09-27T05:05:56.408Z,118.93
2017-09-27T05:08:24.012Z,117.93
2017-09-27T05:10:51.965Z,131.97
2017-09-27T05:13:19.937Z,135.30
2017-09-27T05:15:47.559Z,129.40
2017-09-27T05:18:15.188Z,121.70
2017-09-27T05:20:42.783Z,127.63
2017-09-27T05:23:10.366Z,145.03
2017-09-27T05:25:37.983Z,126.20
2017-09-27T05:28:05.587Z,131.00
2017-09-27T05:30:33.272Z,118.97
2017-09-27T05:33:00.869Z,128.83
2017-09-27T05:35:28.464Z,131.87
2017-09-27T05:37:56.090Z,119.20
2017-09-27T05:40:24.027Z,120.80
2017-09-27T05:42:51.665Z,132.90
2017-09-27T05:45:19.248Z,120.93
2017-09-27T05:47:46.843Z,132.23
2017-09-27T05:50:14.472Z,139.07
2017-09-27T05:52:42.069Z,131.77
2017-09-27T05:55:09.707Z,131.13
2017-09-27T05:57:37.357Z,133.23
2017-09-27T06:00:04.977Z,192.27
2017-09-27T06:02:32.627Z,168.07
2017-09-27T06:05:00.232Z,135.93
2017-09-27T06:07:27.918Z,127.23
2017-09-27T06:09:55.524Z,141.27
2017-09-27T06:12:23.435Z,145.07
2017-09-27T06:14:51.057Z,141.50
2017-09-27T06:17:18.663Z,134.87
2017-09-27T06:19:46.318Z,135.20
2017-09-27T06:22:13.923Z,146.60
2017-09-27T06:24:41.504Z,140.97
2017-09-27T06:27:09.128Z,140.00
2017-09-27T06:29:37.080Z,144.00
2017-09-27T06:32:04.744Z,154.80
2017-09-27T06:34:32.341Z,161.07
2017-09-27T06:37:00.275Z,137.73
2017-09-27T06:39:27.909Z,155.67
2017-09-27T06:41:55.512Z,139.13
2017-09-27T06:44:23.165Z,155.73
2017-09-27T06:46:50.792Z,152.00
2017-09-27T06:49:18.387Z,142.80
2017-09-27T06:51:46.000Z,140.70
2017-09-27T06:54:13.683Z,138.87
2017-09-27T06:56:41.297Z,150.00
2017-09-27T06:59:09.241Z,148.07
2017-09-27T07:01:36.828Z,137.93
2017-09-27T07:04:04.428Z,137.10
2017-09-27T07:06:32.128Z,145.57
2017-09-27T07:08:59.730Z,136.30
2017-09-27T07:11:27.369Z,129.20
2017-09-27T07:13:55.232Z,133.37
2017-09-27T07:16:22.817Z,134.83
2017-09-27T07:18:50.459Z,135.80
2017-09-27T07:21:18.057Z,132.50
2017-09-27T07:23:46.414Z,127.37
2017-09-27T07:26:14.015Z,129.00
2017-09-27T07:28:41.620Z,128.87
2017-09-27T07:31:09.264Z,138.37
2017-09-27T07:33:37.148Z,137.23
2017-09-27T07:36:04.804Z,134.90
2017-09-27T07:38:32.398Z,115.93
2017-09-27T07:41:00.039Z,125.57
2017-09-27T07:43:27.690Z,133.77
2017-09-27T07:45:55.293Z,118.97
2017-09-27T07:48:22.940Z,120.10
2017-09-27T07:50:50.891Z,118.10
2017-09-27T07:53:18.505Z,116.50
2017-09-27T07:55:47.474Z,115.67
2017-09-27T07:58:15.105Z,139.23
2017-09-27T08:00:42.771Z,120.90
2017-09-27T08:03:10.372Z,122.00
2017-09-27T08:05:37.982Z,126.80
2017-09-27T08:08:05.608Z,122.90
2017-09-27T08:10:33.216Z,122.43
2017-09-27T08:13:00.873Z,119.90
2017-09-27T08:15:28.499Z,113.83
2017-09-27T08:17:56.100Z,116.07
2017-09-27T08:20:24.074Z,125.83
2017-09-27T08:22:51.678Z,127.47
2017-09-27T08:25:19.390Z,116.77
2017-09-27T08:27:46.990Z,117.70
2017-09-27T08:30:14.600Z,124.30
2017-09-27T08:32:42.230Z,114.63
2017-09-27T08:35:09.875Z,137.57
2017-09-27T08:37:37.504Z,124.03
2017-09-27T08:40:05.122Z,115.30
2017-09-27T08:42:32.709Z,126.43
2017-09-27T08:45:00.355Z,120.50
2017-09-27T08:47:27.957Z,138.70
2017-09-27T08:49:55.594Z,129.53
2017-09-27T08:52:23.213Z,126.73
2017-09-27T08:54:50.820Z,144.40
2017-09-27T08:57:18.708Z,135.40
2017-09-27T08:59:46.306Z,142.83
2017-09-27T09:02:14.241Z,136.70
2017-09-27T09:04:41.846Z,201.20
2017-09-27T09:07:09.436Z,139.60
2017-09-27T09:09:37.341Z,138.90
2017-09-27T09:12:04.940Z,140.10
2017-09-27T09:14:32.609Z,141.87
2017-09-27T09:17:00.525Z,124.23
2017-09-27T09:19:28.132Z,128.77
2017-09-27T09:21:55.772Z,137.73
2017-09-27T09:24:23.359Z,146.83
2017-09-27T09:26:51.343Z,124.40
2017-09-27T09:29:19.763Z,128.37
2017-09-27T09:31:47.367Z,130.03
2017-09-27T09:34:15.402Z,131.97
2017-09-27T09:36:42.993Z,126.60
2017-09-27T09:39:10.688Z,108.73
2017-09-27T09:41:38.293Z,138.53
2017-09-27T09:44:05.900Z,129.07
2017-09-27T09:46:33.540Z,114.90
2017-09-27T09:49:01.142Z,133.50
2017-09-27T09:51:28.788Z,119.93
2017-09-27T09:53:56.398Z,111.50
2017-09-27T09:56:24.010Z,114.13
2017-09-27T09:58:51.925Z,111.73
2017-09-27T10:01:19.519Z,105.63
2017-09-27T10:03:48.739Z,101.93
2017-09-27T10:06:16.480Z,106.87
2017-09-27T10:08:44.138Z,100.60
2017-09-27T10:11:11.759Z,109.23
2017-09-27T10:13:39.363Z,91.00
2017-09-27T10:16:07.001Z,111.50
2017-09-27T10:18:34.603Z,99.70
2017-09-27T10:21:02.529Z,108.07
2017-09-27T10:23:30.155Z,88.30
2017-09-27T10:25:57.746Z,96.93
2017-09-27T10:28:25.383Z,102.97
2017-09-27T10:30:52.980Z,110.00
2017-09-27T10:33:20.582Z,95.47
2017-09-27T10:35:48.201Z,96.90
2017-09-27T10:38:15.853Z,80.50
2017-09-27T10:40:44.021Z,110.20
2017-09-27T10:43:13.051Z,88.73
2017-09-27T10:45:40.816Z,95.70
2017-09-27T10:48:08.425Z,96.33
2017-09-27T10:50:36.456Z,83.37
2017-09-27T10:53:06.070Z,94.17
2017-09-27T10:55:33.929Z,85.17
2017-09-27T10:58:01.714Z,88.43
2017-09-27T11:00:31.169Z,88.07
2017-09-27T11:02:59.307Z,75.50
2017-09-27T11:05:28.569Z,84.40
2017-09-27T11:07:56.733Z,85.80
2017-09-27T11:10:24.330Z,88.23
2017-09-27T11:12:52.789Z,94.17
2017-09-27T11:15:20.395Z,80.90
2017-09-27T11:17:48.300Z,85.13
2017-09-27T11:20:15.903Z,84.70
2017-09-27T11:22:43.519Z,77.93
2017-09-27T11:25:11.155Z,72.43
2017-09-27T11:27:38.749Z,77.80
2017-09-27T11:30:06.376Z,77.80
2017-09-27T11:32:33.988Z,69.03
2017-09-27T11:35:01.851Z,70.33
2017-09-27T11:37:29.718Z,82.60
2017-09-27T11:39:57.604Z,61.97
2017-09-27T11:42:25.246Z,69.90
2017-09-27T11:44:52.826Z,77.70
2017-09-27T11:47:20.551Z,70.77
2017-09-27T11:49:48.449Z,64.17
2017-09-27T11:52:16.053Z,63.13
2017-09-27T11:54:43.775Z,64.67
2017-09-27T11:57:11.769Z,62.47
2017-09-27T11:59:39.708Z,50.53
2017-09-27T12:02:07.781Z,60.77
2017-09-27T12:04:35.415Z,61.67
2017-09-27T12:07:03.054Z,54.87
2017-09-27T12:09:30.667Z,67.90
2017-09-27T12:11:58.259Z,67.47
2017-09-27T12:14:25.886Z,63.93
2017-09-27T12:16:53.484Z,66.97
2017-09-27T12:19:21.142Z,55.87
2017-09-27T12:21:48.744Z,75.97
2017-09-27T12:24:16.440Z,52.73
2017-09-27T12:26:44.056Z,69.97
2017-09-27T12:29:11.665Z,52.47
2017-09-27T12:31:40.665Z,47.90
2017-09-27T12:34:08.284Z,59.27
2017-09-27T12:36:36.290Z,61.03
2017-09-27T12:39:03.949Z,45.70
2017-09-27T12:41:31.584Z,58.33
2017-09-27T12:43:59.221Z,57.97
2017-09-27T12:46:27.250Z,47.93
2017-09-27T12:48:54.958Z,48.13
2017-09-27T12:51:22.877Z,59.87
2017-09-27T12:53:50.525Z,63.57
2017-09-27T12:56:18.154Z,59.63
2017-09-27T12:58:45.774Z,39.50
2017-09-27T13:01:13.418Z,56.10
2017-09-27T13:03:41.053Z,49.30
2017-09-27T13:06:08.656Z,46.70
2017-09-27T13:08:36.295Z,48.63
2017-09-27T13:11:03.896Z,41.53
2017-09-27T13:13:31.520Z,47.23
2017-09-27T13:15:59.177Z,44.80
2017-09-27T13:18:27.069Z,46.70
2017-09-27T13:20:54.704Z,55.60
2017-09-27T13:23:22.331Z,49.53
2017-09-27T13:25:50.293Z,49.23
2017-09-27T13:28:17.912Z,69.57
2017-09-27T13:30:45.518Z,51.93
2017-09-27T13:33:13.291Z,52.23
2017-09-27T13:35:40.885Z,44.40
2017-09-27T13:38:08.477Z,60.63
2017-09-27T13:40:36.104Z,50.13
2017-09-27T13:43:03.686Z,44.27
2017-09-27T13:45:31.346Z,38.03
2017-09-27T13:47:59.228Z,38.83
2017-09-27T13:50:26.837Z,46.37
2017-09-27T13:52:54.488Z,53.03
2017-09-27T13:55:22.071Z,49.57
2017-09-27T13:57:50.348Z,48.40
2017-09-27T14:00:18.263Z,60.33
2017-09-27T14:02:46.145Z,43.53
2017-09-27T14:05:13.766Z,38.00
2017-09-27T14:07:41.665Z,66.80
2017-09-27T14:10:09.297Z,50.13
2017-09-27T14:12:36.902Z,56.07
2017-09-27T14:15:04.485Z,48.10
2017-09-27T14:17:32.108Z,45.43
2017-09-27T14:19:59.704Z,37.77
2017-09-27T14:22:27.350Z,43.00
2017-09-27T14:24:54.942Z,42.83
2017-09-27T14:27:22.540Z,38.70
2017-09-27T14:29:50.163Z,32.40
2017-09-27T14:32:18.106Z,38.87
2017-09-27T14:34:45.708Z,40.43
2017-09-27T14:37:13.616Z,55.33
2017-09-27T14:39:41.207Z,44.87
2017-09-27T14:42:08.818Z,41.43
2017-09-27T14:44:36.468Z,48.23
2017-09-27T14:47:04.070Z,41.60
2017-09-27T14:49:31.669Z,44.93
2017-09-27T14:51:59.292Z,42.00
2017-09-27T14:54:26.882Z,37.97
2017-09-27T14:56:54.534Z,41.67
2017-09-27T14:59:22.141Z,32.97
2017-09-27T15:01:49.749Z,37.47
2017-09-27T15:04:17.386Z,45.53
2017-09-27T15:06:44.989Z,33.40
2017-09-27T15:09:12.631Z,45.00
2017-09-27T15:11:40.235Z,48.70
2017-09-27T15:14:07.833Z,40.43
2017-09-27T15:16:35.493Z,33.90
2017-09-27T15:19:03.080Z,40.43
2017-09-27T15:21:30.762Z,45.87
2017-09-27T15:23:58.349Z,34.07
2017-09-27T15:26:26.270Z,38.23
2017-09-27T15:28:53.895Z,37.80
2017-09-27T15:31:21.497Z,34.50
2017-09-27T15:33:49.169Z,50.83
2017-09-27T15:36:16.754Z,35.30
2017-09-27T15:38:44.682Z,53.63
2017-09-27T15:41:12.295Z,35.10
2017-09-27T15:43:39.900Z,33.97
2017-09-27T15:46:07.532Z,36.77
2017-09-27T15:48:35.125Z,35.03
2017-09-27T15:51:02.750Z,36.17
2017-09-27T15:53:30.372Z,43.80
2017-09-27T15:55:57.954Z,41.50
2017-09-27T15:58:25.593Z,45.73
2017-09-27T16:00:53.177Z,48.20
2017-09-27T16:03:21.025Z,43.90
2017-09-27T16:05:48.662Z,37.83
2017-09-27T16:08:16.546Z,45.10
2017-09-27T16:10:44.183Z,38.20
2017-09-27T16:13:11.774Z,39.10
2017-09-27T16:15:39.378Z,42.93
2017-09-27T16:18:07.302Z,41.17
2017-09-27T16:20:34.954Z,31.73
2017-09-27T16:23:02.587Z,40.13
2017-09-27T16:25:30.197Z,40.20
2017-09-27T16:27:57.809Z,38.03
2017-09-27T16:30:25.431Z,37.40
2017-09-27T16:32:53.373Z,41.57
2017-09-27T16:35:21.342Z,32.57
2017-09-27T16:37:48.943Z,38.33
2017-09-27T16:40:16.546Z,37.80
2017-09-27T16:42:44.172Z,47.30
2017-09-27T16:45:12.109Z,37.10
2017-09-27T16:47:39.753Z,38.83
2017-09-27T16:50:07.333Z,41.67
2017-09-27T16:52:34.927Z,32.60
2017-09-27T16:55:02.859Z,39.13
2017-09-27T17:00:04.225Z,46.07
2017-09-27T17:02:31.812Z,39.27
2017-09-27T17:04:59.413Z,45.70
2017-09-27T17:07:27.042Z,39.53
2017-09-27T17:09:54.636Z,36.93
2017-09-27T17:12:22.290Z,34.17
2017-09-27T17:14:49.880Z,35.27
2017-09-27T17:17:17.455Z,32.67
2017-09-27T17:19:45.100Z,37.00
2017-09-27T17:22:12.728Z,37.73
2017-09-27T17:24:40.349Z,36.73
2017-09-27T17:27:07.982Z,32.63
2017-09-27T17:29:35.593Z,30.13
2017-09-27T17:32:03.533Z,28.83
2017-09-27T17:34:31.403Z,35.40
2017-09-27T17:36:59.049Z,28.07
2017-09-27T17:39:26.670Z,34.43
2017-09-27T17:41:54.285Z,31.83
2017-09-27T17:44:21.936Z,34.70
2017-09-27T17:46:49.531Z,44.90
2017-09-27T17:49:17.487Z,49.23
2017-09-27T17:51:45.118Z,27.90
2017-09-27T17:54:13.035Z,30.70
2017-09-27T17:56:41.565Z,33.83
2017-09-27T17:59:09.166Z,40.20
2017-09-27T18:01:37.125Z,32.47
2017-09-27T18:04:07.604Z,31.60
2017-09-27T18:06:40.893Z,46.17
2017-09-27T18:09:17.077Z,29.63
2017-09-27T18:11:50.181Z,41.00
2017-09-27T18:14:23.391Z,40.77
2017-09-27T18:16:55.626Z,36.97
2017-09-27T18:19:23.241Z,39.50
2017-09-27T18:21:50.843Z,40.93
2017-09-27T18:24:18.564Z,32.43
2017-09-27T18:26:46.185Z,35.13
2017-09-27T18:29:13.818Z,32.47
2017-09-27T18:31:41.429Z,34.03
2017-09-27T18:34:09.054Z,35.10
2017-09-27T18:36:36.684Z,44.97
2017-09-27T18:39:04.285Z,38.07
2017-09-27T18:41:31.935Z,33.07
2017-09-27T18:44:02.900Z,31.17
2017-09-27T18:46:30.877Z,43.30
2017-09-27T18:48:58.514Z,35.73
2017-09-27T18:51:26.104Z,37.70
2017-09-27T18:53:53.999Z,31.73
2017-09-27T18:56:21.967Z,34.10
2017-09-27T18:58:49.566Z,31.53
2017-09-27T19:01:17.192Z,42.43
2017-09-27T19:03:44.789Z,34.97
2017-09-27T19:06:12.446Z,28.37
2017-09-27T19:08:40.068Z,34.33
2017-09-27T19:11:07.681Z,42.77
2017-09-27T19:13:35.344Z,40.77
2017-09-27T19:16:03.016Z,43.23
2017-09-27T19:18:30.693Z,27.20
2017-09-27T19:20:58.709Z,32.63
2017-09-27T19:23:26.298Z,31.90
2017-09-27T19:25:53.987Z,30.13
2017-09-27T19:28:21.695Z,38.10
2017-09-27T19:30:49.329Z,43.83
2017-09-27T19:33:16.924Z,33.80
2017-09-27T19:35:44.518Z,34.13
2017-09-27T19:38:12.154Z,29.50
2017-09-27T19:40:40.010Z,37.70
2017-09-27T19:43:07.672Z,32.83
2017-09-27T19:45:35.644Z,35.50
2017-09-27T19:48:03.262Z,46.47
2017-09-27T19:50:30.887Z,43.30
2017-09-27T19:52:58.508Z,34.20
2017-09-27T19:55:26.172Z,36.30
2017-09-27T19:57:53.769Z,34.40
2017-09-27T20:00:21.730Z,38.23
2017-09-27T20:02:49.390Z,34.37
2017-09-27T20:05:17.016Z,33.50
2017-09-27T20:07:44.704Z,34.93
2017-09-27T20:10:12.313Z,34.80
2017-09-27T20:12:39.926Z,36.43
2017-09-27T20:15:07.557Z,32.17
2017-09-27T20:17:35.158Z,33.00
2017-09-27T20:20:02.804Z,33.87
2017-09-27T20:22:30.694Z,53.37
2017-09-27T20:24:58.358Z,46.27
2017-09-27T20:27:25.999Z,38.07
2017-09-27T20:29:53.645Z,50.37
2017-09-27T20:32:21.274Z,37.80
2017-09-27T20:34:48.914Z,31.20
2017-09-27T20:37:16.513Z,34.10
2017-09-27T20:39:44.154Z,32.23
2017-09-27T20:42:11.796Z,33.33
2017-09-27T20:44:39.652Z,34.00
2017-09-27T20:47:07.260Z,33.00
2017-09-27T20:49:34.873Z,28.67
2017-09-27T20:52:02.497Z,30.33
2017-09-27T20:54:30.115Z,55.83
2017-09-27T20:56:57.964Z,42.83
2017-09-27T20:59:25.936Z,40.90
2017-09-27T21:01:53.516Z,34.07
2017-09-27T21:04:21.118Z,32.20
2017-09-27T21:06:48.754Z,40.57
2017-09-27T21:09:16.695Z,30.47
2017-09-27T21:11:44.277Z,36.40
2017-09-27T21:14:12.005Z,51.10
2017-09-27T21:16:39.681Z,39.03
2017-09-27T21:19:07.331Z,38.80
2017-09-27T21:21:34.926Z,57.00
2017-09-27T21:24:03.217Z,35.80
2017-09-27T21:26:32.098Z,53.27
2017-09-27T21:28:59.728Z,40.33
2017-09-27T21:31:27.377Z,41.57
2017-09-27T21:33:55.011Z,32.37
2017-09-27T21:36:22.622Z,34.17
2017-09-27T21:38:50.244Z,31.20
2017-09-27T21:41:18.157Z,59.73
2017-09-27T21:43:46.336Z,57.63
2017-09-27T21:46:14.201Z,41.13
2017-09-27T21:48:41.866Z,33.53
2017-09-27T21:51:09.483Z,40.80
2017-09-27T21:53:37.081Z,37.10
2017-09-27T21:56:04.738Z,44.83
2017-09-27T21:58:32.485Z,32.40
2017-09-27T22:01:00.070Z,32.47
2017-09-27T22:03:27.706Z,34.03
2017-09-27T22:05:55.303Z,36.53
2017-09-27T22:08:22.946Z,39.03
2017-09-27T22:10:50.532Z,37.47
2017-09-27T22:13:18.139Z,31.57
2017-09-27T22:15:45.774Z,38.47
2017-09-27T22:18:13.356Z,40.23
2017-09-27T22:20:41.004Z,31.53
2017-09-27T22:23:08.602Z,38.73
2017-09-27T22:25:36.192Z,36.63
2017-09-27T22:28:22.105Z,36.13
2017-09-27T22:30:50.891Z,33.20
2017-09-27T22:33:18.522Z,37.60
2017-09-27T22:35:46.166Z,45.60
2017-09-27T22:38:13.770Z,42.33
2017-09-27T22:40:41.388Z,39.70
2017-09-27T22:43:09.287Z,37.53
2017-09-27T22:45:37.268Z,32.17
2017-09-27T22:48:04.880Z,37.87
2017-09-27T22:50:32.476Z,37.33
2017-09-27T22:53:00.105Z,58.37
2017-09-27T22:55:27.701Z,31.80
2017-09-27T22:57:55.676Z,48.23
2017-09-27T23:00:23.289Z,33.60
2017-09-27T23:02:50.894Z,42.53
2017-09-27T23:05:18.509Z,52.47
2017-09-27T23:07:46.178Z,43.77
2017-09-27T23:10:14.657Z,39.70
2017-09-27T23:12:42.248Z,36.93
2017-09-27T23:15:09.875Z,41.77
2017-09-27T23:17:37.750Z,30.57
2017-09-27T23:20:05.454Z,35.93
2017-09-27T23:22:36.957Z,34.97
2017-09-27T23:25:04.895Z,37.63
2017-09-27T23:27:32.555Z,35.97
2017-09-27T23:30:00.432Z,47.13
2017-09-27T23:32:28.033Z,40.60
2017-09-27T23:34:55.675Z,35.93
2017-09-27T23:37:23.261Z,35.73
2017-09-27T23:39:50.893Z,43.03
2017-09-27T23:42:18.520Z,48.43
2017-09-27T23:44:46.403Z,37.80
2017-09-27T23:47:14.034Z,45.73
2017-09-27T23:49:41.656Z,41.27
2017-09-27T23:52:09.244Z,38.63
2017-09-27T23:54:36.866Z,40.70
2017-09-27T23:57:04.444Z,48.57
2017-09-27T23:59:32.093Z,36.57
